sensor_id;sensor_type;location;lat;lon;timestamp;temperature;humidity
22948;DHT22;11640;52.520;13.456;2022-09-06T00:02:45;16.40;96.40
22948;DHT22;11640;52.520;13.456;2022-09-06T00:07:47;16.30;96.70
22948;DHT22;11640;52.520;13.456;2022-09-06T00:12:49;16.20;96.80
22948;DHT22;11640;52.520;13.456;2022-09-06T00:17:51;16.20;96.90
22948;DHT22;11640;52.520;13.456;2022-09-06T00:22:57;16.10;97.00
22948;DHT22;11640;52.520;13.456;2022-09-06T00:28:03;16.10;96.90
22948;DHT22;11640;52.520;13.456;2022-09-06T00:33:05;16.10;97.00
22948;DHT22;11640;52.520;13.456;2022-09-06T00:38:07;16.00;97.30
22948;DHT22;11640;52.520;13.456;2022-09-06T00:43:08;15.90;97.10
22948;DHT22;11640;52.520;13.456;2022-09-06T00:48:10;15.90;97.40
22948;DHT22;11640;52.520;13.456;2022-09-06T00:53:12;15.80;97.50
22948;DHT22;11640;52.520;13.456;2022-09-06T00:58:15;15.70;97.60
22948;DHT22;11640;52.520;13.456;2022-09-06T01:03:17;15.70;97.70
22948;DHT22;11640;52.520;13.456;2022-09-06T01:08:31;15.60;97.80
22948;DHT22;11640;52.520;13.456;2022-09-06T01:13:49;15.60;98.00
22948;DHT22;11640;52.520;13.456;2022-09-06T01:30:04;15.40;98.80
22948;DHT22;11640;52.520;13.456;2022-09-06T01:35:34;15.40;98.50
22948;DHT22;11640;52.520;13.456;2022-09-06T01:40:37;15.40;98.60
22948;DHT22;11640;52.520;13.456;2022-09-06T01:57:09;15.40;98.60
22948;DHT22;11640;52.520;13.456;2022-09-06T02:01:58;15.50;98.60
22948;DHT22;11640;52.520;13.456;2022-09-06T02:07:15;15.50;98.70
22948;DHT22;11640;52.520;13.456;2022-09-06T02:12:19;15.40;99.10
22948;DHT22;11640;52.520;13.456;2022-09-06T02:17:26;15.30;99.30
22948;DHT22;11640;52.520;13.456;2022-09-06T02:22:36;15.30;99.60
22948;DHT22;11640;52.520;13.456;2022-09-06T02:27:39;15.20;99.90
22948;DHT22;11640;52.520;13.456;2022-09-06T02:32:56;15.20;99.90
22948;DHT22;11640;52.520;13.456;2022-09-06T02:37:59;15.10;99.90
22948;DHT22;11640;52.520;13.456;2022-09-06T02:43:04;15.10;99.90
22948;DHT22;11640;52.520;13.456;2022-09-06T02:48:06;15.00;99.90
22948;DHT22;11640;52.520;13.456;2022-09-06T02:53:11;14.90;99.90
22948;DHT22;11640;52.520;13.456;2022-09-06T02:58:14;14.90;99.90
22948;DHT22;11640;52.520;13.456;2022-09-06T03:03:16;14.90;99.90
22948;DHT22;11640;52.520;13.456;2022-09-06T03:08:19;14.90;99.90
22948;DHT22;11640;52.520;13.456;2022-09-06T03:13:22;14.90;99.90
22948;DHT22;11640;52.520;13.456;2022-09-06T03:18:25;14.80;99.90
22948;DHT22;11640;52.520;13.456;2022-09-06T03:23:28;14.70;99.90
22948;DHT22;11640;52.520;13.456;2022-09-06T03:28:30;14.80;99.90
22948;DHT22;11640;52.520;13.456;2022-09-06T03:33:32;14.70;99.90
22948;DHT22;11640;52.520;13.456;2022-09-06T03:38:34;14.70;99.90
22948;DHT22;11640;52.520;13.456;2022-09-06T03:43:35;14.70;99.90
22948;DHT22;11640;52.520;13.456;2022-09-06T03:48:37;14.70;99.90
22948;DHT22;11640;52.520;13.456;2022-09-06T03:53:39;14.70;99.90
22948;DHT22;11640;52.520;13.456;2022-09-06T03:58:41;14.70;99.90
22948;DHT22;11640;52.520;13.456;2022-09-06T04:03:43;14.70;99.90
22948;DHT22;11640;52.520;13.456;2022-09-06T04:08:44;14.60;99.90
22948;DHT22;11640;52.520;13.456;2022-09-06T04:13:46;14.60;99.90
22948;DHT22;11640;52.520;13.456;2022-09-06T04:18:48;14.60;99.90
22948;DHT22;11640;52.520;13.456;2022-09-06T04:23:50;14.50;99.90
22948;DHT22;11640;52.520;13.456;2022-09-06T04:28:52;14.50;99.90
22948;DHT22;11640;52.520;13.456;2022-09-06T04:33:53;14.50;99.90
22948;DHT22;11640;52.520;13.456;2022-09-06T04:38:55;14.40;99.90
22948;DHT22;11640;52.520;13.456;2022-09-06T04:43:57;14.40;99.90
22948;DHT22;11640;52.520;13.456;2022-09-06T04:48:59;14.40;99.90
22948;DHT22;11640;52.520;13.456;2022-09-06T04:54:02;14.30;99.90
22948;DHT22;11640;52.520;13.456;2022-09-06T04:59:03;14.30;99.90
22948;DHT22;11640;52.520;13.456;2022-09-06T05:04:05;14.30;99.90
22948;DHT22;11640;52.520;13.456;2022-09-06T05:09:07;14.40;99.90
22948;DHT22;11640;52.520;13.456;2022-09-06T05:14:09;14.40;99.90
22948;DHT22;11640;52.520;13.456;2022-09-06T05:19:11;14.40;99.90
22948;DHT22;11640;52.520;13.456;2022-09-06T05:24:13;14.40;99.90
22948;DHT22;11640;52.520;13.456;2022-09-06T05:29:15;14.40;99.90
22948;DHT22;11640;52.520;13.456;2022-09-06T05:34:16;14.50;99.90
22948;DHT22;11640;52.520;13.456;2022-09-06T05:39:18;14.50;99.90
22948;DHT22;11640;52.520;13.456;2022-09-06T05:44:24;14.60;99.90
22948;DHT22;11640;52.520;13.456;2022-09-06T05:49:27;14.60;99.90
22948;DHT22;11640;52.520;13.456;2022-09-06T05:54:29;14.70;99.90
22948;DHT22;11640;52.520;13.456;2022-09-06T05:59:31;14.80;99.90
22948;DHT22;11640;52.520;13.456;2022-09-06T06:04:33;14.90;99.90
22948;DHT22;11640;52.520;13.456;2022-09-06T06:09:35;15.00;99.90
22948;DHT22;11640;52.520;13.456;2022-09-06T06:14:37;15.00;99.90
22948;DHT22;11640;52.520;13.456;2022-09-06T06:19:39;15.00;99.90
22948;DHT22;11640;52.520;13.456;2022-09-06T06:24:40;15.10;99.90
22948;DHT22;11640;52.520;13.456;2022-09-06T06:29:42;15.10;99.90
22948;DHT22;11640;52.520;13.456;2022-09-06T06:34:44;15.20;99.90
22948;DHT22;11640;52.520;13.456;2022-09-06T06:39:46;15.20;99.90
22948;DHT22;11640;52.520;13.456;2022-09-06T06:44:48;15.40;99.90
22948;DHT22;11640;52.520;13.456;2022-09-06T06:49:50;15.60;99.90
22948;DHT22;11640;52.520;13.456;2022-09-06T06:54:52;15.90;99.90
22948;DHT22;11640;52.520;13.456;2022-09-06T06:59:54;16.10;99.90
22948;DHT22;11640;52.520;13.456;2022-09-06T07:04:55;16.10;99.90
22948;DHT22;11640;52.520;13.456;2022-09-06T07:09:57;16.30;99.90
22948;DHT22;11640;52.520;13.456;2022-09-06T07:15:19;16.50;99.90
22948;DHT22;11640;52.520;13.456;2022-09-06T07:20:21;16.50;99.90
22948;DHT22;11640;52.520;13.456;2022-09-06T07:25:24;16.50;99.90
22948;DHT22;11640;52.520;13.456;2022-09-06T07:30:30;16.60;99.90
22948;DHT22;11640;52.520;13.456;2022-09-06T07:35:31;16.70;99.90
22948;DHT22;11640;52.520;13.456;2022-09-06T07:40:33;16.80;99.90
22948;DHT22;11640;52.520;13.456;2022-09-06T07:45:35;17.00;99.90
22948;DHT22;11640;52.520;13.456;2022-09-06T07:50:37;17.10;99.90
22948;DHT22;11640;52.520;13.456;2022-09-06T07:55:45;17.20;99.90
22948;DHT22;11640;52.520;13.456;2022-09-06T08:00:47;17.20;99.90
22948;DHT22;11640;52.520;13.456;2022-09-06T08:05:49;17.40;99.90
22948;DHT22;11640;52.520;13.456;2022-09-06T08:11:11;17.60;99.90
22948;DHT22;11640;52.520;13.456;2022-09-06T08:16:13;17.60;99.90
22948;DHT22;11640;52.520;13.456;2022-09-06T08:21:18;17.60;99.90
22948;DHT22;11640;52.520;13.456;2022-09-06T08:26:21;17.90;99.90
22948;DHT22;11640;52.520;13.456;2022-09-06T08:31:23;18.10;99.90
22948;DHT22;11640;52.520;13.456;2022-09-06T08:36:26;18.20;99.90
22948;DHT22;11640;52.520;13.456;2022-09-06T08:41:36;18.10;99.90
22948;DHT22;11640;52.520;13.456;2022-09-06T08:46:59;18.30;99.90
22948;DHT22;11640;52.520;13.456;2022-09-06T09:03:21;18.70;99.90
22948;DHT22;11640;52.520;13.456;2022-09-06T09:08:42;18.80;99.90
22948;DHT22;11640;52.520;13.456;2022-09-06T09:13:53;18.90;99.90
22948;DHT22;11640;52.520;13.456;2022-09-06T09:19:00;19.00;99.90
22948;DHT22;11640;52.520;13.456;2022-09-06T09:24:07;18.90;99.90
22948;DHT22;11640;52.520;13.456;2022-09-06T09:29:09;19.10;99.90
22948;DHT22;11640;52.520;13.456;2022-09-06T09:34:13;19.10;99.90
22948;DHT22;11640;52.520;13.456;2022-09-06T09:39:36;19.40;99.90
22948;DHT22;11640;52.520;13.456;2022-09-06T09:44:43;19.50;99.90
22948;DHT22;11640;52.520;13.456;2022-09-06T09:49:45;19.70;99.90
22948;DHT22;11640;52.520;13.456;2022-09-06T09:54:47;19.90;99.90
22948;DHT22;11640;52.520;13.456;2022-09-06T09:59:55;20.20;99.90
22948;DHT22;11640;52.520;13.456;2022-09-06T10:10:20;20.60;99.90
22948;DHT22;11640;52.520;13.456;2022-09-06T10:15:37;20.80;99.90
22948;DHT22;11640;52.520;13.456;2022-09-06T10:20:45;21.20;99.90
22948;DHT22;11640;52.520;13.456;2022-09-06T10:26:01;21.40;99.90
22948;DHT22;11640;52.520;13.456;2022-09-06T10:42:02;21.90;99.90
22948;DHT22;11640;52.520;13.456;2022-09-06T10:47:14;21.90;99.90
22948;DHT22;11640;52.520;13.456;2022-09-06T10:52:52;21.90;99.20
22948;DHT22;11640;52.520;13.456;2022-09-06T10:57:56;21.70;99.40
22948;DHT22;11640;52.520;13.456;2022-09-06T11:03:26;21.80;99.50
22948;DHT22;11640;52.520;13.456;2022-09-06T11:14:24;21.90;99.50
22948;DHT22;11640;52.520;13.456;2022-09-06T11:19:32;22.20;98.90
22948;DHT22;11640;52.520;13.456;2022-09-06T11:25:24;22.20;98.90
22948;DHT22;11640;52.520;13.456;2022-09-06T11:30:30;21.90;98.60
22948;DHT22;11640;52.520;13.456;2022-09-06T11:35:32;22.30;98.70
22948;DHT22;11640;52.520;13.456;2022-09-06T11:40:39;22.20;98.50
22948;DHT22;11640;52.520;13.456;2022-09-06T12:06:19;22.50;98.10
22948;DHT22;11640;52.520;13.456;2022-09-06T12:11:43;22.50;98.10
22948;DHT22;11640;52.520;13.456;2022-09-06T12:22:02;22.90;98.40
22948;DHT22;11640;52.520;13.456;2022-09-06T12:27:28;23.00;98.80
22948;DHT22;11640;52.520;13.456;2022-09-06T12:32:46;23.10;97.60
22948;DHT22;11640;52.520;13.456;2022-09-06T12:37:54;23.00;98.80
22948;DHT22;11640;52.520;13.456;2022-09-06T12:42:57;23.10;98.10
22948;DHT22;11640;52.520;13.456;2022-09-06T12:48:26;23.10;98.10
22948;DHT22;11640;52.520;13.456;2022-09-06T12:53:28;23.20;98.10
22948;DHT22;11640;52.520;13.456;2022-09-06T12:58:32;23.20;97.70
22948;DHT22;11640;52.520;13.456;2022-09-06T13:04:13;23.20;97.80
22948;DHT22;11640;52.520;13.456;2022-09-06T13:09:10;23.30;97.70
22948;DHT22;11640;52.520;13.456;2022-09-06T13:14:22;23.40;97.80
22948;DHT22;11640;52.520;13.456;2022-09-06T13:19:34;23.30;98.00
22948;DHT22;11640;52.520;13.456;2022-09-06T13:24:45;23.70;97.30
22948;DHT22;11640;52.520;13.456;2022-09-06T13:30:00;23.70;97.60
22948;DHT22;11640;52.520;13.456;2022-09-06T13:35:03;23.70;97.10
22948;DHT22;11640;52.520;13.456;2022-09-06T13:40:42;23.50;97.60
22948;DHT22;11640;52.520;13.456;2022-09-06T13:46:06;24.00;97.40
22948;DHT22;11640;52.520;13.456;2022-09-06T13:51:08;24.20;97.50
22948;DHT22;11640;52.520;13.456;2022-09-06T13:56:10;24.00;97.00
22948;DHT22;11640;52.520;13.456;2022-09-06T14:01:12;24.60;96.50
22948;DHT22;11640;52.520;13.456;2022-09-06T14:06:15;24.90;96.10
22948;DHT22;11640;52.520;13.456;2022-09-06T14:11:17;25.50;95.50
22948;DHT22;11640;52.520;13.456;2022-09-06T14:16:19;25.70;95.30
22948;DHT22;11640;52.520;13.456;2022-09-06T14:21:21;25.80;94.80
22948;DHT22;11640;52.520;13.456;2022-09-06T14:26:23;25.80;94.30
22948;DHT22;11640;52.520;13.456;2022-09-06T14:31:26;25.90;94.40
22948;DHT22;11640;52.520;13.456;2022-09-06T14:36:29;25.90;93.80
22948;DHT22;11640;52.520;13.456;2022-09-06T14:41:32;26.10;93.30
22948;DHT22;11640;52.520;13.456;2022-09-06T14:46:34;26.10;93.30
22948;DHT22;11640;52.520;13.456;2022-09-06T14:51:36;25.70;93.70
22948;DHT22;11640;52.520;13.456;2022-09-06T14:56:40;25.90;93.80
22948;DHT22;11640;52.520;13.456;2022-09-06T15:01:42;25.90;93.80
22948;DHT22;11640;52.520;13.456;2022-09-06T15:06:44;25.60;94.00
22948;DHT22;11640;52.520;13.456;2022-09-06T15:11:50;25.40;94.20
22948;DHT22;11640;52.520;13.456;2022-09-06T15:16:54;25.30;94.30
22948;DHT22;11640;52.520;13.456;2022-09-06T15:22:00;25.20;94.20
22948;DHT22;11640;52.520;13.456;2022-09-06T15:27:02;25.20;94.80
22948;DHT22;11640;52.520;13.456;2022-09-06T15:32:06;24.90;94.70
22948;DHT22;11640;52.520;13.456;2022-09-06T15:37:09;24.60;95.20
22948;DHT22;11640;52.520;13.456;2022-09-06T15:42:11;24.30;95.40
22948;DHT22;11640;52.520;13.456;2022-09-06T15:47:13;24.20;95.80
22948;DHT22;11640;52.520;13.456;2022-09-06T15:52:15;24.10;96.30
22948;DHT22;11640;52.520;13.456;2022-09-06T15:57:17;24.10;96.40
22948;DHT22;11640;52.520;13.456;2022-09-06T16:02:19;23.70;96.50
22948;DHT22;11640;52.520;13.456;2022-09-06T16:07:21;23.60;96.90
22948;DHT22;11640;52.520;13.456;2022-09-06T16:12:25;23.40;96.80
22948;DHT22;11640;52.520;13.456;2022-09-06T16:17:27;23.10;97.10
22948;DHT22;11640;52.520;13.456;2022-09-06T16:22:31;23.00;97.60
22948;DHT22;11640;52.520;13.456;2022-09-06T16:27:33;22.70;97.60
22948;DHT22;11640;52.520;13.456;2022-09-06T16:32:35;22.40;97.70
22948;DHT22;11640;52.520;13.456;2022-09-06T16:37:37;22.30;97.90
22948;DHT22;11640;52.520;13.456;2022-09-06T16:42:39;22.10;97.90
22948;DHT22;11640;52.520;13.456;2022-09-06T16:47:41;22.10;97.80
22948;DHT22;11640;52.520;13.456;2022-09-06T16:52:43;22.00;97.90
22948;DHT22;11640;52.520;13.456;2022-09-06T16:57:44;22.00;97.90
22948;DHT22;11640;52.520;13.456;2022-09-06T17:02:46;21.80;98.10
22948;DHT22;11640;52.520;13.456;2022-09-06T17:07:48;21.70;98.20
22948;DHT22;11640;52.520;13.456;2022-09-06T17:12:50;21.70;98.00
22948;DHT22;11640;52.520;13.456;2022-09-06T17:17:52;21.50;98.20
22948;DHT22;11640;52.520;13.456;2022-09-06T17:22:54;21.50;98.30
22948;DHT22;11640;52.520;13.456;2022-09-06T17:27:56;21.40;98.30
22948;DHT22;11640;52.520;13.456;2022-09-06T17:32:58;21.30;98.30
22948;DHT22;11640;52.520;13.456;2022-09-06T17:38:00;21.20;98.10
22948;DHT22;11640;52.520;13.456;2022-09-06T17:43:02;21.20;98.30
22948;DHT22;11640;52.520;13.456;2022-09-06T17:48:07;21.10;98.30
22948;DHT22;11640;52.520;13.456;2022-09-06T17:53:09;21.00;98.30
22948;DHT22;11640;52.520;13.456;2022-09-06T17:58:11;21.00;98.10
22948;DHT22;11640;52.520;13.456;2022-09-06T18:03:13;20.90;98.40
22948;DHT22;11640;52.520;13.456;2022-09-06T18:08:15;20.80;98.30
22948;DHT22;11640;52.520;13.456;2022-09-06T18:13:17;20.80;98.30
22948;DHT22;11640;52.520;13.456;2022-09-06T18:18:18;20.80;98.50
22948;DHT22;11640;52.520;13.456;2022-09-06T18:23:20;20.80;98.50
22948;DHT22;11640;52.520;13.456;2022-09-06T18:28:22;20.60;98.60
22948;DHT22;11640;52.520;13.456;2022-09-06T18:33:24;20.60;98.60
22948;DHT22;11640;52.520;13.456;2022-09-06T18:38:26;20.60;98.70
22948;DHT22;11640;52.520;13.456;2022-09-06T18:43:31;20.50;98.70
22948;DHT22;11640;52.520;13.456;2022-09-06T18:48:34;20.50;99.20
22948;DHT22;11640;52.520;13.456;2022-09-06T18:53:37;20.50;99.00
22948;DHT22;11640;52.520;13.456;2022-09-06T18:58:45;20.30;98.90
22948;DHT22;11640;52.520;13.456;2022-09-06T19:03:47;20.30;99.10
22948;DHT22;11640;52.520;13.456;2022-09-06T19:08:49;20.20;99.10
22948;DHT22;11640;52.520;13.456;2022-09-06T19:13:54;20.00;99.10
22948;DHT22;11640;52.520;13.456;2022-09-06T19:19:04;19.90;99.20
22948;DHT22;11640;52.520;13.456;2022-09-06T19:24:07;19.90;99.30
22948;DHT22;11640;52.520;13.456;2022-09-06T19:29:14;19.80;99.20
22948;DHT22;11640;52.520;13.456;2022-09-06T19:34:17;19.80;99.30
22948;DHT22;11640;52.520;13.456;2022-09-06T19:39:20;19.70;99.20
22948;DHT22;11640;52.520;13.456;2022-09-06T19:44:34;19.70;99.30
22948;DHT22;11640;52.520;13.456;2022-09-06T19:49:38;19.70;99.40
22948;DHT22;11640;52.520;13.456;2022-09-06T19:54:40;19.70;99.10
22948;DHT22;11640;52.520;13.456;2022-09-06T19:59:43;19.70;99.00
22948;DHT22;11640;52.520;13.456;2022-09-06T20:04:44;19.60;99.00
22948;DHT22;11640;52.520;13.456;2022-09-06T20:09:47;19.60;99.20
22948;DHT22;11640;52.520;13.456;2022-09-06T20:14:53;19.50;99.00
22948;DHT22;11640;52.520;13.456;2022-09-06T20:19:54;19.60;99.00
22948;DHT22;11640;52.520;13.456;2022-09-06T20:24:57;19.50;99.40
22948;DHT22;11640;52.520;13.456;2022-09-06T20:29:59;19.50;99.20
22948;DHT22;11640;52.520;13.456;2022-09-06T20:35:01;19.50;99.20
22948;DHT22;11640;52.520;13.456;2022-09-06T20:40:05;19.50;99.30
22948;DHT22;11640;52.520;13.456;2022-09-06T20:45:08;19.40;99.20
22948;DHT22;11640;52.520;13.456;2022-09-06T20:50:10;19.50;99.20
22948;DHT22;11640;52.520;13.456;2022-09-06T20:55:12;19.40;99.50
22948;DHT22;11640;52.520;13.456;2022-09-06T21:00:14;19.40;99.30
22948;DHT22;11640;52.520;13.456;2022-09-06T21:05:16;19.40;99.00
22948;DHT22;11640;52.520;13.456;2022-09-06T21:10:18;19.40;99.10
22948;DHT22;11640;52.520;13.456;2022-09-06T21:15:20;19.30;99.60
22948;DHT22;11640;52.520;13.456;2022-09-06T21:20:21;19.30;99.40
22948;DHT22;11640;52.520;13.456;2022-09-06T21:25:23;19.20;99.30
22948;DHT22;11640;52.520;13.456;2022-09-06T21:30:25;19.20;99.30
22948;DHT22;11640;52.520;13.456;2022-09-06T21:35:27;19.20;99.40
22948;DHT22;11640;52.520;13.456;2022-09-06T21:40:29;19.10;99.40
22948;DHT22;11640;52.520;13.456;2022-09-06T21:45:36;19.10;99.50
22948;DHT22;11640;52.520;13.456;2022-09-06T21:50:38;19.00;99.40
22948;DHT22;11640;52.520;13.456;2022-09-06T21:55:40;19.00;99.40
22948;DHT22;11640;52.520;13.456;2022-09-06T22:00:50;19.00;99.30
22948;DHT22;11640;52.520;13.456;2022-09-06T22:05:53;19.00;99.20
22948;DHT22;11640;52.520;13.456;2022-09-06T22:11:12;18.90;99.10
22948;DHT22;11640;52.520;13.456;2022-09-06T22:16:16;19.00;98.90
22948;DHT22;11640;52.520;13.456;2022-09-06T22:21:20;18.80;99.00
22948;DHT22;11640;52.520;13.456;2022-09-06T22:26:23;18.80;99.00
22948;DHT22;11640;52.520;13.456;2022-09-06T22:31:27;18.80;99.70
22948;DHT22;11640;52.520;13.456;2022-09-06T22:36:29;18.70;99.90
22948;DHT22;11640;52.520;13.456;2022-09-06T22:41:31;18.70;99.90
22948;DHT22;11640;52.520;13.456;2022-09-06T22:46:35;18.60;99.90
22948;DHT22;11640;52.520;13.456;2022-09-06T22:51:37;18.60;99.90
22948;DHT22;11640;52.520;13.456;2022-09-06T22:56:39;18.50;99.80
22948;DHT22;11640;52.520;13.456;2022-09-06T23:01:41;18.40;99.90
22948;DHT22;11640;52.520;13.456;2022-09-06T23:06:43;18.20;99.90
22948;DHT22;11640;52.520;13.456;2022-09-06T23:11:45;18.20;99.90
22948;DHT22;11640;52.520;13.456;2022-09-06T23:16:46;18.10;99.90
22948;DHT22;11640;52.520;13.456;2022-09-06T23:21:48;18.00;99.90
22948;DHT22;11640;52.520;13.456;2022-09-06T23:26:50;17.90;99.90
22948;DHT22;11640;52.520;13.456;2022-09-06T23:31:53;17.80;99.90
22948;DHT22;11640;52.520;13.456;2022-09-06T23:36:55;17.80;99.90
22948;DHT22;11640;52.520;13.456;2022-09-06T23:42:00;17.70;99.90
22948;DHT22;11640;52.520;13.456;2022-09-06T23:47:02;17.80;99.90
22948;DHT22;11640;52.520;13.456;2022-09-06T23:52:04;17.70;99.90
22948;DHT22;11640;52.520;13.456;2022-09-06T23:57:06;17.60;99.90
